createdAt,value
2017-10-07T04:01:22.180Z,99.90
2017-10-07T04:03:49.704Z,99.90
2017-10-07T04:06:17.264Z,99.90
2017-10-07T04:08:44.794Z,99.90
2017-10-07T04:11:13.094Z,99.90
2017-10-07T04:13:40.647Z,99.90
2017-10-07T04:16:08.209Z,99.90
2017-10-07T04:18:35.723Z,99.90
2017-10-07T04:21:03.234Z,99.90
2017-10-07T04:23:30.772Z,99.90
2017-10-07T04:25:58.310Z,99.90
2017-10-07T04:28:25.863Z,99.90
2017-10-07T04:30:53.375Z,99.90
2017-10-07T04:33:20.947Z,99.90
2017-10-07T04:35:48.491Z,99.90
2017-10-07T04:38:16.044Z,99.90
2017-10-07T04:40:43.626Z,99.90
2017-10-07T04:43:11.136Z,99.90
2017-10-07T04:45:39.445Z,99.90
2017-10-07T04:48:06.977Z,99.90
2017-10-07T04:50:34.532Z,99.90
2017-10-07T04:53:02.061Z,99.90
2017-10-07T04:55:29.571Z,99.90
2017-10-07T04:57:57.129Z,99.90
2017-10-07T05:00:24.689Z,99.90
2017-10-07T05:02:52.259Z,99.90
2017-10-07T05:05:19.775Z,99.90
2017-10-07T05:07:47.340Z,99.90
2017-10-07T05:10:14.866Z,99.90
2017-10-07T05:12:42.388Z,99.90
2017-10-07T05:15:09.940Z,99.90
2017-10-07T05:17:37.594Z,99.90
2017-10-07T05:20:05.155Z,99.90
2017-10-07T05:22:32.662Z,99.90
2017-10-07T05:25:00.957Z,99.90
2017-10-07T05:27:29.264Z,99.90
2017-10-07T05:29:56.813Z,99.90
2017-10-07T05:32:24.368Z,99.90
2017-10-07T05:34:51.886Z,99.90
2017-10-07T05:37:19.400Z,99.90
2017-10-07T05:39:46.951Z,99.90
2017-10-07T05:42:14.475Z,99.90
2017-10-07T05:44:42.800Z,99.90
2017-10-07T05:47:10.369Z,99.90
2017-10-07T05:49:37.879Z,99.90
2017-10-07T05:52:05.456Z,99.90
2017-10-07T05:54:32.969Z,99.90
2017-10-07T05:57:01.247Z,99.90
2017-10-07T05:59:29.579Z,99.90
2017-10-07T06:01:57.096Z,99.90
2017-10-07T06:04:25.413Z,99.90
2017-10-07T06:06:52.952Z,99.90
2017-10-07T06:09:20.472Z,99.90
2017-10-07T06:11:48.806Z,99.90
2017-10-07T06:14:16.359Z,99.90
2017-10-07T06:16:43.888Z,99.90
2017-10-07T06:19:11.404Z,99.90
2017-10-07T06:21:38.964Z,99.90
2017-10-07T06:24:07.269Z,99.90
2017-10-07T06:26:35.552Z,99.90
2017-10-07T06:29:03.095Z,99.90
2017-10-07T06:31:30.612Z,99.90
2017-10-07T06:33:58.165Z,99.90
2017-10-07T06:36:25.681Z,99.90
2017-10-07T06:38:53.240Z,99.90
2017-10-07T06:41:20.749Z,99.90
2017-10-07T06:43:48.264Z,99.90
2017-10-07T06:46:15.829Z,99.90
2017-10-07T06:48:43.340Z,99.90
2017-10-07T06:51:10.859Z,99.90
2017-10-07T06:53:38.414Z,99.90
2017-10-07T06:56:05.928Z,99.90
2017-10-07T06:58:34.315Z,99.90
2017-10-07T07:01:01.861Z,99.90
2017-10-07T07:03:30.168Z,99.90
2017-10-07T07:05:57.678Z,99.90
2017-10-07T07:08:25.224Z,99.90
2017-10-07T07:10:52.737Z,99.90
2017-10-07T07:13:20.278Z,99.90
2017-10-07T07:15:49.504Z,99.90
2017-10-07T07:18:17.084Z,99.90
2017-10-07T07:20:44.632Z,99.90
2017-10-07T07:23:12.190Z,99.90
2017-10-07T07:25:39.724Z,99.90
2017-10-07T07:28:07.236Z,99.90
2017-10-07T07:30:34.796Z,99.90
2017-10-07T07:33:02.312Z,99.90
2017-10-07T07:35:29.842Z,99.90
2017-10-07T07:37:57.404Z,99.90
2017-10-07T07:40:24.945Z,99.90
2017-10-07T07:42:52.479Z,99.90
2017-10-07T07:45:20.043Z,99.90
2017-10-07T07:47:47.556Z,99.90
2017-10-07T07:50:15.125Z,99.90
2017-10-07T07:52:42.664Z,99.90
2017-10-07T07:55:10.217Z,99.90
2017-10-07T07:57:37.760Z,99.90
2017-10-07T08:00:05.315Z,99.90
2017-10-07T08:02:33.628Z,99.90
2017-10-07T08:05:01.156Z,99.90
2017-10-07T08:07:28.720Z,99.90
2017-10-07T08:09:56.277Z,99.90
2017-10-07T08:12:23.803Z,99.90
2017-10-07T08:14:51.374Z,99.90
2017-10-07T08:17:18.918Z,99.90
2017-10-07T08:19:46.460Z,99.90
2017-10-07T08:22:14.024Z,99.90
2017-10-07T08:24:41.594Z,99.90
2017-10-07T08:27:09.138Z,99.60
2017-10-07T08:29:37.481Z,99.50
2017-10-07T08:32:05.012Z,99.40
2017-10-07T08:34:32.566Z,98.70
2017-10-07T08:37:00.124Z,98.50
2017-10-07T08:39:27.655Z,98.60
2017-10-07T08:41:55.260Z,98.80
2017-10-07T08:44:22.823Z,98.00
2017-10-07T08:46:50.384Z,99.20
2017-10-07T08:49:17.928Z,98.10
2017-10-07T08:51:45.495Z,97.10
2017-10-07T08:54:13.047Z,97.80
2017-10-07T08:56:40.569Z,97.10
2017-10-07T08:59:08.900Z,97.50
2017-10-07T09:01:36.481Z,97.50
2017-10-07T09:04:04.031Z,97.00
2017-10-07T09:06:31.668Z,96.70
2017-10-07T09:08:59.208Z,97.30
2017-10-07T09:11:26.762Z,96.50
2017-10-07T09:13:54.317Z,96.00
2017-10-07T09:16:21.860Z,95.30
2017-10-07T09:18:50.160Z,96.00
2017-10-07T09:21:17.713Z,96.00
2017-10-07T09:23:45.245Z,96.20
2017-10-07T09:26:13.578Z,94.50
2017-10-07T09:28:41.092Z,94.50
2017-10-07T09:31:08.622Z,94.70
2017-10-07T09:33:36.187Z,93.70
2017-10-07T09:36:04.521Z,92.00
2017-10-07T09:38:32.102Z,91.90
2017-10-07T09:41:00.506Z,91.80
2017-10-07T09:43:28.097Z,91.80
2017-10-07T09:45:55.696Z,91.80
2017-10-07T09:48:23.237Z,91.70
2017-10-07T09:50:50.852Z,92.10
2017-10-07T09:53:19.180Z,90.50
2017-10-07T09:55:46.752Z,90.50
2017-10-07T09:58:14.301Z,90.50
2017-10-07T10:00:41.839Z,90.70
2017-10-07T10:03:09.405Z,91.30
2017-10-07T10:05:36.995Z,90.70
2017-10-07T10:08:04.557Z,89.50
2017-10-07T10:10:32.087Z,90.50
2017-10-07T10:12:59.640Z,91.70
2017-10-07T10:15:27.151Z,91.20
2017-10-07T10:17:55.481Z,92.00
2017-10-07T10:20:22.996Z,92.00
2017-10-07T10:22:50.525Z,87.50
2017-10-07T10:25:18.079Z,87.50
2017-10-07T10:27:45.597Z,85.40
2017-10-07T10:30:13.187Z,85.00
2017-10-07T10:32:40.714Z,91.00
2017-10-07T10:35:08.267Z,87.70
2017-10-07T10:37:35.822Z,86.90
2017-10-07T10:40:03.349Z,88.40
2017-10-07T10:42:31.663Z,81.90
2017-10-07T10:44:59.196Z,81.70
2017-10-07T10:47:26.748Z,83.70
2017-10-07T10:49:55.079Z,87.20
2017-10-07T10:52:22.591Z,87.00
2017-10-07T10:54:50.138Z,84.20
2017-10-07T10:57:17.675Z,85.50
2017-10-07T10:59:46.716Z,83.90
2017-10-07T11:02:14.307Z,83.90
2017-10-07T11:04:41.884Z,82.20
2017-10-07T11:07:09.417Z,82.70
2017-10-07T11:09:36.983Z,81.10
2017-10-07T11:12:04.508Z,77.70
2017-10-07T11:14:32.044Z,76.70
2017-10-07T11:16:59.598Z,74.50
2017-10-07T11:19:27.166Z,74.90
2017-10-07T11:21:54.700Z,71.60
2017-10-07T11:24:22.990Z,70.90
2017-10-07T11:26:51.303Z,74.20
2017-10-07T11:29:18.818Z,74.80
2017-10-07T11:31:46.398Z,72.90
2017-10-07T11:34:13.906Z,73.90
2017-10-07T11:36:41.420Z,71.30
2017-10-07T11:39:08.979Z,72.60
2017-10-07T11:41:36.548Z,66.40
2017-10-07T11:44:04.076Z,65.20
2017-10-07T11:46:31.630Z,64.80
2017-10-07T11:48:59.165Z,65.60
2017-10-07T11:51:27.460Z,68.10
2017-10-07T11:53:55.017Z,68.10
2017-10-07T11:56:23.327Z,64.40
2017-10-07T11:58:50.886Z,64.20
2017-10-07T12:01:18.407Z,64.50
2017-10-07T12:03:46.728Z,66.30
2017-10-07T12:06:14.271Z,66.30
2017-10-07T12:08:41.787Z,70.70
2017-10-07T12:11:09.348Z,69.50
2017-10-07T12:13:37.660Z,69.80
2017-10-07T12:16:05.219Z,69.80
2017-10-07T12:18:32.736Z,70.30
2017-10-07T12:21:01.084Z,70.50
2017-10-07T12:23:28.609Z,70.40
2017-10-07T12:25:56.141Z,69.20
2017-10-07T12:28:24.457Z,74.10
2017-10-07T12:30:51.992Z,74.00
2017-10-07T12:33:19.512Z,70.30
2017-10-07T12:35:47.052Z,70.40
2017-10-07T12:38:14.587Z,71.20
2017-10-07T12:40:42.135Z,70.40
2017-10-07T12:43:10.450Z,73.00
2017-10-07T12:45:37.999Z,72.90
2017-10-07T12:48:05.559Z,69.90
2017-10-07T12:50:33.067Z,69.70
2017-10-07T12:53:00.621Z,70.90
2017-10-07T12:55:28.169Z,71.60
2017-10-07T12:57:56.457Z,69.80
2017-10-07T13:00:24.011Z,69.80
2017-10-07T13:02:51.520Z,70.50
2017-10-07T13:05:19.023Z,70.50
2017-10-07T13:07:46.573Z,69.20
2017-10-07T13:10:14.084Z,69.20
2017-10-07T13:12:41.635Z,68.10
2017-10-07T13:15:09.143Z,69.70
2017-10-07T13:17:37.460Z,70.10
2017-10-07T13:20:04.996Z,70.10
2017-10-07T13:22:32.507Z,69.30
2017-10-07T13:25:00.070Z,69.60
2017-10-07T13:27:27.620Z,70.20
2017-10-07T13:29:55.140Z,69.20
2017-10-07T13:32:22.708Z,70.10
2017-10-07T13:34:50.288Z,71.70
2017-10-07T13:37:17.812Z,71.30
2017-10-07T13:39:45.327Z,68.70
2017-10-07T13:42:13.648Z,71.80
2017-10-07T13:44:41.180Z,71.80
2017-10-07T13:47:09.503Z,69.70
2017-10-07T13:49:37.064Z,69.70
2017-10-07T13:52:04.579Z,69.00
2017-10-07T13:54:32.095Z,69.60
2017-10-07T13:57:00.420Z,68.60
2017-10-07T13:59:27.937Z,67.90
2017-10-07T14:02:02.792Z,70.50
2017-10-07T14:04:30.323Z,70.30
2017-10-07T14:06:57.877Z,68.40
2017-10-07T14:09:25.400Z,69.50
2017-10-07T14:11:53.971Z,69.80
2017-10-07T14:14:21.485Z,71.30
2017-10-07T14:16:49.778Z,69.60
2017-10-07T14:19:17.331Z,69.60
2017-10-07T14:21:45.612Z,70.80
2017-10-07T14:24:13.173Z,70.80
2017-10-07T14:26:40.733Z,70.10
2017-10-07T14:29:08.244Z,68.60
2017-10-07T14:31:35.829Z,71.20
2017-10-07T14:34:04.149Z,70.20
2017-10-07T14:36:31.693Z,70.10
2017-10-07T14:38:59.216Z,71.50
2017-10-07T14:41:27.540Z,69.50
2017-10-07T14:43:55.051Z,69.40
2017-10-07T14:46:23.339Z,72.80
2017-10-07T14:48:50.896Z,73.50
2017-10-07T14:51:19.172Z,73.40
2017-10-07T14:53:47.835Z,74.40
2017-10-07T14:56:15.351Z,74.40
2017-10-07T14:58:42.899Z,76.80
2017-10-07T15:01:10.564Z,72.70
2017-10-07T15:03:38.108Z,73.30
2017-10-07T15:06:05.621Z,75.80
2017-10-07T15:08:33.175Z,75.30
2017-10-07T15:11:00.693Z,75.80
2017-10-07T15:13:28.225Z,75.80
2017-10-07T15:15:55.784Z,79.10
2017-10-07T15:18:23.351Z,79.60
2017-10-07T15:20:50.976Z,79.30
2017-10-07T15:23:18.495Z,81.60
2017-10-07T15:25:46.027Z,78.90
2017-10-07T15:28:13.584Z,82.60
2017-10-07T15:30:41.107Z,81.60
2017-10-07T15:33:08.632Z,80.80
2017-10-07T15:35:36.186Z,82.80
2017-10-07T15:38:03.757Z,83.00
2017-10-07T15:40:31.319Z,81.60
2017-10-07T15:42:58.839Z,80.70
2017-10-07T15:45:26.364Z,80.40
2017-10-07T15:47:54.680Z,81.20
2017-10-07T15:50:22.196Z,81.20
2017-10-07T15:52:50.516Z,84.70
2017-10-07T15:55:18.048Z,84.60
2017-10-07T15:57:45.573Z,82.20
2017-10-07T16:00:13.167Z,82.90
2017-10-07T16:02:40.799Z,86.10
2017-10-07T16:05:09.196Z,87.40
2017-10-07T16:07:36.748Z,87.30
2017-10-07T16:10:04.370Z,87.70
2017-10-07T16:12:32.805Z,86.60
2017-10-07T16:15:00.403Z,86.40
2017-10-07T16:17:28.062Z,88.00
2017-10-07T16:19:55.723Z,90.00
2017-10-07T16:22:23.369Z,89.80
2017-10-07T16:24:51.030Z,87.00
2017-10-07T16:27:18.736Z,89.50
2017-10-07T16:29:47.126Z,85.20
2017-10-07T16:32:14.829Z,85.10
2017-10-07T16:34:42.545Z,84.20
2017-10-07T16:37:10.147Z,84.20
2017-10-07T16:39:37.950Z,85.40
2017-10-07T16:42:06.406Z,88.10
2017-10-07T16:44:34.083Z,87.90
2017-10-07T16:47:01.782Z,85.90
2017-10-07T16:49:29.492Z,87.10
2017-10-07T16:51:57.265Z,88.20
2017-10-07T16:54:24.998Z,88.20
2017-10-07T16:56:52.689Z,85.60
2017-10-07T16:59:20.375Z,85.90
2017-10-07T17:01:48.057Z,85.60
2017-10-07T17:04:16.677Z,85.80
2017-10-07T17:06:44.264Z,84.10
2017-10-07T17:09:11.856Z,86.00
2017-10-07T17:11:39.381Z,84.60
2017-10-07T17:14:06.932Z,85.30
2017-10-07T17:16:34.516Z,84.70
2017-10-07T17:19:02.132Z,85.20
2017-10-07T17:21:29.895Z,85.20
2017-10-07T17:23:57.483Z,84.90
2017-10-07T17:26:25.112Z,85.60
2017-10-07T17:28:52.649Z,85.00
2017-10-07T17:31:20.258Z,83.30
2017-10-07T17:33:47.825Z,84.30
2017-10-07T17:36:16.525Z,84.70
2017-10-07T17:38:44.109Z,84.70
2017-10-07T17:41:11.708Z,86.10
2017-10-07T17:43:39.307Z,86.40
2017-10-07T17:46:06.860Z,85.60
2017-10-07T17:48:35.156Z,85.60
2017-10-07T17:51:02.707Z,85.50
2017-10-07T17:53:30.228Z,84.90
2017-10-07T17:55:57.759Z,86.50
2017-10-07T17:58:25.307Z,85.20
2017-10-07T18:00:52.894Z,85.40
2017-10-07T18:03:21.281Z,85.80
2017-10-07T18:05:49.624Z,86.30
2017-10-07T18:08:17.342Z,86.20
2017-10-07T18:10:45.059Z,84.90
2017-10-07T18:13:13.400Z,85.70
2017-10-07T18:15:41.772Z,86.30
2017-10-07T18:18:09.386Z,86.20
2017-10-07T18:20:36.954Z,85.60
2017-10-07T18:23:04.512Z,87.00
2017-10-07T18:25:32.196Z,85.90
2017-10-07T18:27:59.769Z,86.20
2017-10-07T18:30:27.386Z,86.80
2017-10-07T18:32:54.944Z,86.90
2017-10-07T18:35:23.313Z,87.80
2017-10-07T18:37:51.717Z,87.80
2017-10-07T18:40:19.300Z,87.70
2017-10-07T18:42:46.821Z,87.70
2017-10-07T18:45:14.359Z,87.80
2017-10-07T18:47:41.943Z,89.90
2017-10-07T18:50:10.283Z,90.10
2017-10-07T18:52:37.848Z,90.00
2017-10-07T18:55:06.685Z,88.70
2017-10-07T18:57:34.226Z,88.70
2017-10-07T19:00:02.572Z,88.20
2017-10-07T19:02:30.117Z,87.50
2017-10-07T19:04:57.705Z,87.30
2017-10-07T19:07:26.056Z,88.90
2017-10-07T19:09:53.656Z,88.70
2017-10-07T19:12:21.227Z,87.10
2017-10-07T19:14:48.812Z,86.70
2017-10-07T19:17:16.369Z,85.70
2017-10-07T19:19:43.980Z,87.20
2017-10-07T19:22:12.310Z,86.40
2017-10-07T19:24:39.923Z,86.40
2017-10-07T19:27:07.472Z,88.00
2017-10-07T19:29:35.022Z,87.20
2017-10-07T19:32:02.629Z,88.00
2017-10-07T19:34:30.221Z,88.10
2017-10-07T19:36:57.768Z,89.70
2017-10-07T19:39:25.318Z,88.60
2017-10-07T19:41:52.888Z,89.20
2017-10-07T19:44:20.474Z,87.60
2017-10-07T19:46:48.024Z,86.80
2017-10-07T19:49:15.582Z,86.90
2017-10-07T19:51:43.176Z,86.10
2017-10-07T19:54:10.754Z,85.20
2017-10-07T19:56:38.309Z,85.00
2017-10-07T19:59:05.973Z,85.40
2017-10-07T20:01:33.599Z,84.70
2017-10-07T20:04:01.976Z,85.10
2017-10-07T20:06:30.305Z,82.90
2017-10-07T20:08:57.881Z,82.90
2017-10-07T20:11:25.464Z,82.10
2017-10-07T20:13:53.016Z,82.30
2017-10-07T20:16:20.549Z,81.60
2017-10-07T20:18:48.110Z,81.30
2017-10-07T20:21:15.669Z,79.10
2017-10-07T20:23:43.187Z,79.90
2017-10-07T20:26:10.705Z,78.40
2017-10-07T20:28:38.263Z,78.20
2017-10-07T20:31:05.785Z,78.30
2017-10-07T20:33:34.174Z,78.30
2017-10-07T20:36:01.758Z,79.10
2017-10-07T20:38:29.277Z,78.60
2017-10-07T20:40:56.796Z,78.00
2017-10-07T20:43:25.135Z,76.90
2017-10-07T20:45:52.664Z,76.80
2017-10-07T20:48:20.185Z,79.20
2017-10-07T20:50:48.500Z,78.50
2017-10-07T20:53:16.025Z,78.50
2017-10-07T20:55:43.590Z,77.60
2017-10-07T20:58:11.217Z,77.80
2017-10-07T21:00:38.754Z,77.50
2017-10-07T21:03:06.285Z,77.80
2017-10-07T21:05:33.886Z,77.30
2017-10-07T21:08:01.457Z,77.20
2017-10-07T21:10:29.032Z,76.80
2017-10-07T21:12:56.576Z,77.30
2017-10-07T21:15:24.957Z,78.80
2017-10-07T21:17:52.463Z,78.70
2017-10-07T21:20:20.037Z,78.20
2017-10-07T21:22:47.615Z,76.50
2017-10-07T21:25:15.179Z,77.60
2017-10-07T21:27:42.706Z,77.70
2017-10-07T21:30:10.285Z,76.20
2017-10-07T21:32:38.831Z,76.30
2017-10-07T21:35:06.376Z,75.80
2017-10-07T21:37:34.137Z,76.70
2017-10-07T21:40:01.706Z,75.20
2017-10-07T21:42:29.269Z,75.20
2017-10-07T21:44:56.914Z,75.30
2017-10-07T21:47:24.466Z,75.50
2017-10-07T21:49:52.025Z,75.30
2017-10-07T21:52:19.583Z,74.90
2017-10-07T21:54:47.203Z,75.10
